Time;durP1;ratioP1;P1;durP2;ratioP2;P2;SDS_P1;SDS_P2;PMS_P1;PMS_P2;Temp;Humidity;BMP_temperature;BMP_pressure;BME280_temperature;BME280_humidity;BME280_pressure;Samples;Min_cycle;Max_cycle;Signal;HPM_P1;HPM_P2
2023/07/03 00:00:17;;;;;;;10.65;2.00;;;;;;;19.47;84.12;99813.72;1521010;89;21279;-86
2023/07/03 00:02:43;;;;;;;4.40;1.95;;;;;;;19.46;84.17;99814.23;1392104;89;22296;-88
2023/07/03 00:05:10;;;;;;;5.17;2.20;;;;;;;19.44;84.27;99814.97;1549005;89;21220;-85
2023/07/03 00:07:38;;;;;;;4.60;1.98;;;;;;;19.38;84.32;99809.97;1371584;90;22108;-85
2023/07/03 00:10:06;;;;;;;3.08;2.22;;;;;;;19.31;84.19;99813.77;1388968;89;21412;-87
2023/07/03 00:12:32;;;;;;;6.75;2.20;;;;;;;19.23;84.20;99818.06;1388578;89;21331;-88
2023/07/03 00:14:59;;;;;;;2.00;1.80;;;;;;;19.13;84.45;99822.55;1396222;89;21450;-79
2023/07/03 00:17:25;;;;;;;4.67;2.45;;;;;;;19.05;83.86;99825.53;1389973;89;21257;-89
2023/07/03 00:19:51;;;;;;;4.25;2.47;;;;;;;19.01;84.17;99828.33;1390232;89;22116;-88
2023/07/03 00:22:17;;;;;;;3.77;2.30;;;;;;;18.99;84.37;99830.39;1390694;89;22209;-89
2023/07/03 00:24:43;;;;;;;3.50;2.10;;;;;;;18.98;84.14;99831.45;1396391;89;21293;-84
2023/07/03 00:27:09;;;;;;;5.97;1.80;;;;;;;18.90;84.09;99829.34;1391348;89;21242;-88
2023/07/03 00:29:35;;;;;;;3.92;2.08;;;;;;;18.84;84.63;99833.38;1390424;89;21330;-85
2023/07/03 00:32:02;;;;;;;3.12;2.45;;;;;;;18.79;84.69;99835.39;1390199;89;21257;-84
2023/07/03 00:34:28;;;;;;;7.97;1.75;;;;;;;18.72;84.81;99835.91;1390415;89;21309;-86
2023/07/03 00:36:54;;;;;;;9.55;1.98;;;;;;;18.65;84.98;99829.25;1396052;89;22143;-86
2023/07/03 00:39:21;;;;;;;5.70;1.77;;;;;;;18.61;85.14;99824.52;1394201;89;21368;-87
2023/07/03 00:41:47;;;;;;;4.95;2.70;;;;;;;18.56;85.20;99830.54;1389913;89;21405;-90
2023/07/03 00:44:17;;;;;;;4.25;2.15;;;;;;;18.52;85.33;99829.83;1458837;89;21601;-91
2023/07/03 00:46:48;;;;;;;8.48;2.83;;;;;;;18.47;85.06;99821.93;1468414;89;21565;-90
2023/07/03 00:49:15;;;;;;;5.95;2.10;;;;;;;18.45;85.13;99827.20;1462997;89;21419;-90
2023/07/03 00:51:45;;;;;;;4.17;1.75;;;;;;;18.40;84.96;99817.63;1464026;89;21599;-88
2023/07/03 00:54:12;;;;;;;12.80;2.08;;;;;;;18.34;84.96;99826.00;1466940;89;21533;-89
2023/07/03 00:56:40;;;;;;;7.63;2.43;;;;;;;18.30;85.07;99832.83;1462458;89;21434;-89
2023/07/03 00:59:06;;;;;;;3.58;1.95;;;;;;;18.26;85.11;99827.05;1465541;89;21411;-86
2023/07/03 01:02:12;;;;;;;7.67;3.50;;;;;;;18.26;85.23;99832.41;1470142;89;21551;-87
2023/07/03 01:04:49;;;;;;;7.77;2.47;;;;;;;18.24;85.22;99831.82;1463635;89;21419;-88
2023/07/03 01:07:20;;;;;;;3.20;1.70;;;;;;;18.20;85.72;99837.80;1465890;89;21381;-89
2023/07/03 01:09:51;;;;;;;7.70;1.77;;;;;;;18.16;85.44;99836.59;1466372;89;21478;-88
2023/07/03 01:12:19;;;;;;;6.53;2.17;;;;;;;18.13;85.94;99838.36;1461849;89;21725;-87
2023/07/03 01:14:46;;;;;;;8.20;1.97;;;;;;;18.11;85.61;99835.05;1439416;89;21426;-89
2023/07/03 01:17:14;;;;;;;3.97;1.80;;;;;;;18.08;85.59;99836.30;1445751;89;21645;-88
2023/07/03 01:19:45;;;;;;;4.10;2.10;;;;;;;18.07;85.66;99841.36;1444456;89;21455;-89
2023/07/03 01:22:26;;;;;;;6.53;1.90;;;;;;;18.03;85.42;99835.58;1460180;89;21367;-89
2023/07/03 01:24:59;;;;;;;6.27;2.57;;;;;;;18.00;85.44;99837.86;1464721;89;22262;-88
2023/07/03 01:27:34;;;;;;;2.53;1.93;;;;;;;17.95;85.54;99839.84;1468721;89;21293;-88
2023/07/03 01:30:03;;;;;;;2.03;1.77;;;;;;;17.89;85.47;99842.00;1465501;89;21361;-89
2023/07/03 01:32:32;;;;;;;3.23;1.90;;;;;;;17.86;86.25;99850.45;1462628;89;21381;-87
2023/07/03 01:35:00;;;;;;;3.70;1.90;;;;;;;17.84;86.42;99852.53;1465575;89;21447;-88
2023/07/03 01:37:28;;;;;;;8.23;2.07;;;;;;;17.84;86.67;99855.70;1464633;89;21382;-89
2023/07/03 01:39:56;;;;;;;3.50;2.37;;;;;;;17.86;86.98;99862.50;1464178;89;22255;-89
2023/07/03 01:42:25;;;;;;;2.13;1.93;;;;;;;17.89;87.19;99862.08;1470074;89;21412;-88
2023/07/03 01:44:52;;;;;;;4.40;2.53;;;;;;;17.91;87.22;99863.22;1464378;89;21329;-89
2023/07/03 01:47:20;;;;;;;2.87;2.00;;;;;;;17.92;86.94;99867.02;1449520;89;21478;-89
2023/07/03 01:49:48;;;;;;;6.27;2.00;;;;;;;17.92;87.01;99869.69;1466454;89;22329;-88
2023/07/03 01:52:37;;;;;;;5.37;2.23;;;;;;;17.93;86.93;99867.34;1466775;89;22094;-87
2023/07/03 01:55:55;;;;;;;3.93;2.43;;;;;;;17.89;86.95;99868.77;1464193;89;21448;-88
2023/07/03 01:58:41;;;;;;;3.50;1.70;;;;;;;17.88;86.92;99870.33;1463420;89;21492;-87
2023/07/03 02:01:12;;;;;;;3.63;1.97;;;;;;;17.90;87.05;99877.13;1468376;89;21914;-87
2023/07/03 02:03:44;;;;;;;6.33;2.20;;;;;;;17.92;87.43;99873.70;1459792;89;21439;-86
2023/07/03 02:06:34;;;;;;;4.70;1.60;;;;;;;17.93;87.34;99876.70;1463097;89;21572;-87
2023/07/03 02:09:04;;;;;;;4.33;2.43;;;;;;;17.93;87.50;99866.00;1466954;89;21426;-88
2023/07/03 02:11:30;;;;;;;4.20;2.30;;;;;;;17.93;87.99;99867.34;1481105;88;21590;-87
2023/07/03 02:13:56;;;;;;;4.07;1.73;;;;;;;17.85;87.61;99870.23;1477156;88;21441;-87
2023/07/03 02:16:23;;;;;;;3.07;1.77;;;;;;;17.78;87.56;99870.73;1483332;87;22816;-85
2023/07/03 02:18:51;;;;;;;6.03;2.00;;;;;;;17.72;87.92;99875.07;1480782;88;21382;-87
2023/07/03 02:21:17;;;;;;;2.30;1.73;;;;;;;17.70;87.98;99874.45;1477800;88;21301;-87
2023/07/03 02:23:45;;;;;;;3.77;2.30;;;;;;;17.71;87.96;99887.30;1481570;88;21359;-88
2023/07/03 02:26:11;;;;;;;5.40;2.00;;;;;;;17.71;88.05;99889.98;1477479;88;21426;-89
2023/07/03 02:28:38;;;;;;;3.50;1.67;;;;;;;17.72;87.81;99879.58;1480571;88;21819;-88
2023/07/03 02:31:04;;;;;;;4.57;2.07;;;;;;;17.73;87.95;99879.90;1475575;88;22387;-90
2023/07/03 02:33:30;;;;;;;6.00;2.27;;;;;;;17.72;87.72;99882.25;1485005;88;21345;-86
2023/07/03 02:35:56;;;;;;;3.73;1.87;;;;;;;17.68;87.52;99883.70;1478670;88;21499;-86
2023/07/03 02:38:23;;;;;;;4.93;1.77;;;;;;;17.63;87.61;99888.84;1482330;88;21434;-87
2023/07/03 02:40:49;;;;;;;3.03;2.00;;;;;;;17.60;87.97;99890.08;1481156;88;21515;-86
2023/07/03 02:43:15;;;;;;;4.47;2.07;;;;;;;17.60;88.02;99886.89;1460501;89;21397;-89
2023/07/03 02:45:42;;;;;;;6.53;1.90;;;;;;;17.62;88.31;99887.21;1473193;88;21374;-86
2023/07/03 02:48:10;;;;;;;5.30;1.97;;;;;;;17.59;87.94;99893.28;1483364;87;21619;-87
2023/07/03 02:50:36;;;;;;;3.87;2.03;;;;;;;17.55;88.12;99896.07;1459673;88;21389;-89
2023/07/03 02:53:03;;;;;;;3.10;2.33;;;;;;;17.53;88.50;99902.13;1488305;87;21359;-87
2023/07/03 02:55:29;;;;;;;3.37;2.20;;;;;;;17.50;88.32;99900.39;1492807;87;22520;-88
2023/07/03 02:57:57;;;;;;;7.57;2.20;;;;;;;17.48;88.49;99903.25;1481391;87;21433;-89
2023/07/03 03:00:24;;;;;;;5.17;2.30;;;;;;;17.48;88.48;99905.11;1467198;87;21499;-89
2023/07/03 03:02:50;;;;;;;4.40;1.73;;;;;;;17.45;88.72;99913.03;1476406;88;21345;-89
2023/07/03 03:05:16;;;;;;;3.60;2.00;;;;;;;17.45;89.07;99922.91;1492573;87;21381;-89
2023/07/03 03:07:42;;;;;;;11.90;3.17;;;;;;;17.44;89.51;99911.91;1490268;87;22335;-87
2023/07/03 03:10:09;;;;;;;4.93;2.33;;;;;;;17.43;89.06;99916.41;1476695;87;21375;-86
2023/07/03 03:12:35;;;;;;;2.47;2.00;;;;;;;17.42;89.17;99913.96;1483767;87;21366;-87
2023/07/03 03:15:02;;;;;;;3.20;2.03;;;;;;;17.42;89.13;99909.95;1480822;88;21404;-87
2023/07/03 03:17:28;;;;;;;6.33;2.70;;;;;;;17.45;89.26;99914.37;1492301;87;21388;-86
2023/07/03 03:19:54;;;;;;;6.40;2.20;;;;;;;17.50;89.39;99917.26;1481964;88;21353;-87
2023/07/03 03:22:20;;;;;;;7.47;2.33;;;;;;;17.56;89.10;99912.94;1485814;87;22635;-86
2023/07/03 03:24:46;;;;;;;7.47;1.83;;;;;;;17.58;88.70;99909.55;1476983;88;21382;-86
2023/07/03 03:27:12;;;;;;;9.13;2.50;;;;;;;17.62;88.70;99920.66;1492263;87;21419;-86
2023/07/03 03:29:39;;;;;;;5.77;1.97;;;;;;;17.65;89.24;99918.91;1475758;88;21489;-87
2023/07/03 03:32:06;;;;;;;5.43;2.57;;;;;;;17.67;89.68;99924.89;1478522;88;22329;-86
2023/07/03 03:34:34;;;;;;;5.47;3.20;;;;;;;17.69;89.28;99926.82;1491001;87;21515;-87
2023/07/03 03:37:02;;;;;;;3.83;1.87;;;;;;;17.69;89.64;99922.81;1477589;87;22307;-86
2023/07/03 03:39:29;;;;;;;9.20;2.20;;;;;;;17.72;90.27;99935.28;1478881;88;21507;-86
2023/07/03 03:41:55;;;;;;;5.03;2.30;;;;;;;17.73;90.46;99934.77;1476026;88;21441;-86
2023/07/03 03:44:21;;;;;;;3.73;2.60;;;;;;;17.76;90.71;99937.03;1489915;87;21484;-86
2023/07/03 03:46:47;;;;;;;9.13;2.20;;;;;;;17.78;90.76;99940.33;1475977;87;21352;-87
2023/07/03 03:49:13;;;;;;;4.92;2.87;;;;;;;17.82;90.74;99934.89;1475698;88;21353;-86
2023/07/03 03:51:40;;;;;;;7.37;2.45;;;;;;;17.88;91.04;99935.91;1481824;88;21360;-84
2023/07/03 03:54:08;;;;;;;3.33;2.03;;;;;;;17.90;91.23;99940.03;1473596;88;21433;-85
2023/07/03 03:56:34;;;;;;;4.55;2.92;;;;;;;17.95;91.32;99942.92;1490824;87;21351;-86
2023/07/03 03:59:01;;;;;;;7.25;2.10;;;;;;;17.99;91.63;99942.80;1469078;87;21603;-87
2023/07/03 04:01:28;;;;;;;5.33;2.20;;;;;;;18.04;91.14;99940.33;1492825;87;22414;-87
2023/07/03 04:03:54;;;;;;;4.05;2.10;;;;;;;18.10;90.43;99944.55;1476071;87;21448;-86
2023/07/03 04:06:21;;;;;;;2.90;2.37;;;;;;;18.18;90.09;99942.97;1481585;88;22343;-87
2023/07/03 04:08:47;;;;;;;3.77;2.20;;;;;;;18.28;89.87;99946.58;1481398;88;21375;-88
2023/07/03 04:11:14;;;;;;;4.60;2.15;;;;;;;18.30;89.40;99949.35;1478021;88;21382;-87
2023/07/03 04:13:40;;;;;;;5.72;2.10;;;;;;;18.34;89.42;99953.24;1476105;88;21603;-88
2023/07/03 04:16:07;;;;;;;2.87;2.35;;;;;;;18.37;89.34;99944.78;1488213;87;21425;-85
2023/07/03 04:18:33;;;;;;;3.65;2.00;;;;;;;18.45;89.28;99949.92;1489462;87;21321;-86
2023/07/03 04:20:59;;;;;;;8.35;2.20;;;;;;;18.51;89.07;99952.80;1479229;87;21404;-85
2023/07/03 04:23:26;;;;;;;3.12;2.20;;;;;;;18.59;88.45;99937.83;1489782;87;21344;-87
2023/07/03 04:25:53;;;;;;;4.87;2.70;;;;;;;18.63;88.06;99947.08;1475919;88;22299;-88
2023/07/03 04:28:22;;;;;;;4.25;2.33;;;;;;;18.71;88.33;99948.19;1478875;88;21271;-84
2023/07/03 04:30:49;;;;;;;6.92;2.37;;;;;;;18.78;88.48;99947.66;1489471;87;21337;-81
2023/07/03 04:33:16;;;;;;;5.00;2.50;;;;;;;18.85;88.43;99949.80;1472507;87;21316;-83
2023/07/03 04:35:44;;;;;;;7.03;2.58;;;;;;;18.88;88.63;99954.74;1456309;88;21448;-82
2023/07/03 04:38:10;;;;;;;6.72;2.87;;;;;;;18.92;88.84;99959.16;1475665;88;22277;-82
2023/07/03 04:40:37;;;;;;;6.47;2.92;;;;;;;18.98;88.91;99961.50;1479976;88;21374;-82
2023/07/03 04:43:06;;;;;;;4.53;2.40;;;;;;;19.04;89.09;99957.95;1493289;87;22416;-81
2023/07/03 04:45:34;;;;;;;4.03;2.52;;;;;;;19.15;89.20;99958.09;1491713;87;22379;-81
2023/07/03 04:48:00;;;;;;;3.35;2.55;;;;;;;19.26;89.17;99962.48;1468803;88;23070;-81
2023/07/03 04:50:27;;;;;;;5.42;2.60;;;;;;;19.33;89.12;99958.73;1478595;88;21614;-82
2023/07/03 04:52:53;;;;;;;2.50;2.12;;;;;;;19.38;88.12;99964.78;1449365;88;21390;-81
2023/07/03 04:55:21;;;;;;;5.03;2.33;;;;;;;19.44;88.22;99968.45;1493885;87;21359;-82
2023/07/03 04:57:47;;;;;;;3.98;2.22;;;;;;;19.49;87.31;99972.66;1486858;87;21345;-81
2023/07/03 05:00:18;;;;;;;4.05;2.20;;;;;;;19.56;86.21;99971.59;1476988;88;21434;-82
2023/07/03 05:02:51;;;;;;;7.08;2.52;;;;;;;19.65;86.65;99980.22;1482440;87;21433;-82
2023/07/03 05:05:20;;;;;;;6.45;3.17;;;;;;;19.68;86.49;99975.76;1487527;87;21589;-82
2023/07/03 05:07:46;;;;;;;4.97;2.17;;;;;;;19.76;86.69;99975.98;1492239;87;21351;-83
2023/07/03 05:10:16;;;;;;;5.83;2.60;;;;;;;19.82;85.49;99980.48;1483521;88;21442;-82
2023/07/03 05:12:42;;;;;;;3.55;2.10;;;;;;;19.93;85.60;99983.80;1490656;87;22417;-85
2023/07/03 05:15:12;;;;;;;5.00;1.98;;;;;;;20.05;84.99;99982.06;1475238;87;21611;-82
2023/07/03 05:17:39;;;;;;;9.65;2.60;;;;;;;20.12;84.74;99981.99;1471809;88;22284;-81
2023/07/03 05:20:10;;;;;;;3.92;2.33;;;;;;;20.20;83.64;99980.38;1482607;87;21292;-81
2023/07/03 05:22:43;;;;;;;4.03;1.95;;;;;;;20.26;82.53;99982.17;1484875;87;21540;-82
2023/07/03 05:25:12;;;;;;;5.87;2.30;;;;;;;20.37;83.08;99997.24;1483636;88;21405;-82
2023/07/03 05:27:39;;;;;;;4.85;1.92;;;;;;;20.51;83.25;99996.91;1477762;88;21368;-83
2023/07/03 05:30:07;;;;;;;9.73;2.65;;;;;;;20.64;83.00;99998.64;1487290;88;21500;-83
2023/07/03 05:32:34;;;;;;;4.85;2.30;;;;;;;20.77;82.70;99991.47;1473825;88;21483;-83
2023/07/03 05:35:03;;;;;;;15.05;2.98;;;;;;;20.86;82.28;100000.37;1489888;87;21374;-82
2023/07/03 05:37:29;;;;;;;3.72;2.00;;;;;;;21.06;82.25;99987.17;1477816;87;21293;-82
2023/07/03 05:39:55;;;;;;;2.52;1.95;;;;;;;21.06;82.25;99987.17;1480863;88;21242;-83
2023/07/03 05:42:23;;;;;;;4.50;2.58;;;;;;;21.25;82.08;99997.38;1475649;88;22255;-82
2023/07/03 05:44:49;;;;;;;3.67;2.08;;;;;;;21.34;81.28;100000.86;1475670;88;21448;-81
2023/07/03 05:47:16;;;;;;;3.40;2.10;;;;;;;21.40;79.65;100001.31;1490234;87;22195;-83
2023/07/03 05:49:42;;;;;;;4.60;2.52;;;;;;;;;;1477459;87;21471;-82
2023/07/03 05:52:11;;;;;;;5.42;2.50;;;;;;;21.48;78.65;100003.41;1476519;88;22364;-81
2023/07/03 05:58:36;;;;;;;2.95;1.75;;;;;;;21.66;78.41;100010.59;1471600;87;22240;-83
2023/07/03 06:01:03;;;;;;;3.80;2.27;;;;;;;21.80;76.37;100009.33;1402116;87;21257;-81
2023/07/03 06:03:31;;;;;;;8.30;2.40;;;;;;;21.86;76.59;100008.41;1400346;88;21331;-83
2023/07/03 06:05:59;;;;;;;6.17;2.85;;;;;;;21.97;77.79;100008.95;1409776;87;21220;-83
2023/07/03 06:08:25;;;;;;;2.85;2.10;;;;;;;22.09;76.39;100020.55;1400401;87;21264;-83
2023/07/03 06:10:52;;;;;;;9.98;3.30;;;;;;;22.16;75.47;100020.99;1411642;87;21248;-82
2023/07/03 06:13:18;;;;;;;3.22;1.98;;;;;;;22.26;74.84;100025.28;1410870;87;21493;-82
2023/07/03 06:15:45;;;;;;;5.00;2.20;;;;;;;22.35;75.07;100027.92;1400547;87;21382;-82
2023/07/03 06:18:11;;;;;;;7.55;2.00;;;;;;;22.47;76.20;100027.41;1402253;88;21316;-82
2023/07/03 06:20:38;;;;;;;2.47;1.95;;;;;;;22.56;74.61;100032.42;1412186;87;21456;-82
2023/07/03 06:23:04;;;;;;;5.05;2.08;;;;;;;22.61;74.19;100037.94;1417842;87;22144;-82
2023/07/03 06:25:30;;;;;;;3.60;1.77;;;;;;;22.72;74.59;100042.49;1401541;87;21382;-80
2023/07/03 06:27:57;;;;;;;5.67;2.00;;;;;;;22.79;73.92;100044.55;1412828;87;21352;-81
2023/07/03 06:30:23;;;;;;;3.40;1.87;;;;;;;22.85;71.74;100044.95;1402004;88;21219;-81
2023/07/03 06:36:48;;;;;;;3.02;1.92;;;;;;;22.88;70.54;100049.87;1418145;87;21330;-82
2023/07/03 06:39:14;;;;;;;9.45;1.75;;;;;;;22.92;71.86;100051.02;1401922;87;21308;-82
2023/07/03 06:41:40;;;;;;;5.45;2.50;;;;;;;23.05;72.67;100052.67;1412190;87;22136;-83
2023/07/03 06:44:13;;;;;;;18.37;2.92;;;;;;;23.17;71.22;100049.94;1401866;87;21383;-83
2023/07/03 06:46:40;;;;;;;4.95;1.72;;;;;;;23.18;69.57;100055.62;1407435;89;21430;-79
2023/07/03 06:49:06;;;;;;;5.87;2.70;;;;;;;23.24;70.54;100058.70;1401298;87;21386;-84
2023/07/03 06:51:32;;;;;;;5.40;2.40;;;;;;;23.24;69.85;100054.66;1412270;87;21219;-82
2023/07/03 06:53:58;;;;;;;3.83;1.70;;;;;;;23.38;70.92;100060.60;1411854;87;21271;-82
2023/07/03 06:56:28;;;;;;;3.72;1.85;;;;;;;23.54;71.20;100050.92;1411962;87;21451;-83
2023/07/03 06:58:54;;;;;;;3.75;1.90;;;;;;;23.66;71.13;100059.78;1477129;87;21463;-82
2023/07/03 07:01:24;;;;;;;3.15;1.90;;;;;;;23.78;70.28;100063.26;1480190;88;22255;-83
2023/07/03 07:03:50;;;;;;;3.40;1.85;;;;;;;23.93;70.23;100059.19;1403997;88;21292;-83
2023/07/03 07:06:22;;;;;;;3.30;2.12;;;;;;;24.04;69.11;100050.19;1411494;87;21242;-83
2023/07/03 07:08:49;;;;;;;3.72;2.22;;;;;;;24.13;69.45;100054.11;1407776;87;21344;-84
2023/07/03 07:11:22;;;;;;;2.52;1.95;;;;;;;24.27;69.26;100055.41;1400454;88;22271;-83
2023/07/03 07:13:51;;;;;;;4.95;1.90;;;;;;;24.36;67.82;100045.54;1408797;88;21322;-84
2023/07/03 07:16:28;;;;;;;3.30;1.87;;;;;;;24.47;69.08;100050.06;1409617;87;21463;-84
2023/07/03 07:18:59;;;;;;;5.65;2.42;;;;;;;24.52;67.94;100054.20;1557088;87;21345;-82
2023/07/03 07:21:25;;;;;;;4.70;2.87;;;;;;;24.65;68.64;100059.23;1575737;87;21249;-83
2023/07/03 07:24:01;;;;;;;6.08;3.08;;;;;;;24.76;68.97;100053.44;1411202;87;21323;-83
2023/07/03 07:26:33;;;;;;;5.25;3.00;;;;;;;24.74;67.37;100051.52;1380824;90;21423;-81
2023/07/03 07:29:03;;;;;;;7.72;3.58;;;;;;;24.67;67.00;100053.59;1445669;87;21285;-83
2023/07/03 07:31:31;;;;;;;6.17;2.75;;;;;;;24.72;67.42;100050.97;1413803;87;21433;-82
2023/07/03 07:33:58;;;;;;;4.00;1.98;;;;;;;24.82;68.08;100055.69;1399511;88;21221;-81
2023/07/03 07:36:26;;;;;;;5.00;1.95;;;;;;;24.98;68.03;100053.47;1401009;88;21316;-82
2023/07/03 07:38:53;;;;;;;6.80;2.20;;;;;;;25.13;67.15;100052.28;1409329;87;21219;-82
2023/07/03 07:41:20;;;;;;;3.50;2.35;;;;;;;25.25;67.62;100046.77;1559008;87;21494;-81
2023/07/03 07:43:48;;;;;;;6.08;1.95;;;;;;;25.37;67.39;100047.43;1410788;87;21211;-81
2023/07/03 07:46:15;;;;;;;4.30;2.05;;;;;;;25.46;66.01;100045.62;1405750;87;22181;-81
2023/07/03 07:48:41;;;;;;;4.28;2.00;;;;;;;25.49;63.13;100047.31;1399996;88;21391;-80
2023/07/03 07:51:11;;;;;;;3.10;1.90;;;;;;;25.45;64.32;100051.59;1411571;87;22040;-84
2023/07/03 07:53:38;;;;;;;;;;;;;;;25.48;63.78;100051.61;1403035;87;21457;-85
2023/07/03 07:56:07;;;;;;;5.17;2.40;;;;;;;25.54;64.81;100058.17;1382406;89;20248;-87
2023/07/03 07:58:34;;;;;;;5.58;2.10;;;;;;;25.71;65.16;100055.36;1404452;88;21506;-86
2023/07/03 08:01:01;;;;;;;8.70;2.92;;;;;;;25.74;63.33;100052.69;1410817;87;21308;-83
2023/07/03 08:03:28;;;;;;;4.22;1.72;;;;;;;25.80;63.70;100051.66;1400612;88;21264;-82
2023/07/03 08:06:03;;;;;;;9.03;1.80;;;;;;;25.85;62.68;100051.73;1400676;88;21458;-85
2023/07/03 08:08:36;;;;;;;5.95;1.60;;;;;;;25.91;62.69;100057.48;1531629;87;21513;-85
2023/07/03 08:11:05;;;;;;;5.37;1.70;;;;;;;25.94;61.82;100057.50;1478019;87;21448;-85
2023/07/03 08:13:33;;;;;;;2.80;1.90;;;;;;;26.02;62.05;100053.78;1398694;88;22145;-85
2023/07/03 08:16:00;;;;;;;5.50;1.80;;;;;;;26.08;62.54;100056.80;1399865;88;21331;-85
2023/07/03 08:18:27;;;;;;;5.53;2.02;;;;;;;26.16;62.15;100056.06;1411370;87;21322;-82
2023/07/03 08:20:54;;;;;;;1.92;1.65;;;;;;;26.23;61.41;100062.07;1400925;88;21391;-87
2023/07/03 08:23:21;;;;;;;6.65;1.85;;;;;;;26.14;57.99;100061.73;1410991;87;21278;-86
2023/07/03 08:25:53;;;;;;;5.05;2.12;;;;;;;26.15;60.81;100061.19;1400825;87;21471;-87
2023/07/03 08:28:21;;;;;;;12.13;2.30;;;;;;;26.28;61.14;100059.40;1407649;87;21256;-86
2023/07/03 08:30:47;;;;;;;9.28;1.90;;;;;;;26.36;60.11;100058.11;1410262;87;21382;-82
2023/07/03 08:33:14;;;;;;;10.70;2.70;;;;;;;26.29;56.02;100060.48;1411245;87;21255;-86
2023/07/03 08:35:41;;;;;;;4.03;1.57;;;;;;;26.41;58.15;100061.64;1400438;87;21383;-86
2023/07/03 08:38:09;;;;;;;3.45;1.60;;;;;;;26.59;58.68;100067.78;1407354;88;21308;-83
2023/07/03 08:40:36;;;;;;;7.50;2.02;;;;;;;26.71;58.33;100057.53;1399434;88;21323;-84
2023/07/03 08:43:03;;;;;;;2.42;1.67;;;;;;;26.89;58.96;100061.14;1401032;88;22115;-83
2023/07/03 08:45:45;;;;;;;5.17;1.40;;;;;;;27.06;58.03;100068.28;1402127;88;21256;-84
2023/07/03 08:48:16;;;;;;;3.17;1.87;;;;;;;27.12;57.66;100067.22;1575405;87;21404;-84
2023/07/03 08:50:47;;;;;;;4.75;2.42;;;;;;;27.16;57.81;100056.11;1562793;87;21183;-85
2023/07/03 08:53:21;;;;;;;4.10;1.30;;;;;;;27.33;58.41;100068.13;1535525;88;21316;-84
2023/07/03 08:55:59;;;;;;;3.12;1.22;;;;;;;27.48;57.61;100065.98;1407005;88;21322;-87
2023/07/03 08:58:25;;;;;;;5.70;1.60;;;;;;;27.47;55.21;100062.45;1556333;87;22152;-84
2023/07/03 09:01:16;;;;;;;8.45;1.60;;;;;;;27.43;56.38;100060.83;1575565;87;21183;-86
2023/07/03 09:03:57;;;;;;;1.75;1.32;;;;;;;27.53;56.99;100061.37;1575408;87;21161;-86
2023/07/03 09:06:29;;;;;;;5.53;1.57;;;;;;;27.60;56.18;100059.78;1562892;88;21362;-87
2023/07/03 09:09:04;;;;;;;1.75;1.40;;;;;;;27.43;54.09;100059.47;1430303;88;21624;-85
2023/07/03 09:11:34;;;;;;;1.90;1.47;;;;;;;27.25;54.57;100061.84;1474529;88;21396;-92
2023/07/03 09:14:02;;;;;;;2.70;1.20;;;;;;;27.31;54.06;100058.89;1478394;88;21434;-92
2023/07/03 09:16:29;;;;;;;1.92;1.30;;;;;;;27.34;54.27;100058.36;1481572;87;21601;-93
2023/07/03 09:19:11;;;;;;;4.42;1.10;;;;;;;27.39;52.16;100057.02;1477047;87;21494;-92
2023/07/03 09:21:39;;;;;;;2.10;1.47;;;;;;;27.53;53.40;100060.56;1486952;87;21425;-94
2023/07/03 09:24:20;;;;;;;1.12;1.02;;;;;;;27.56;52.63;100062.74;1457991;88;22321;-90
2023/07/03 09:27:10;;;;;;;2.35;1.30;;;;;;;27.61;51.30;100060.85;1491785;87;22432;-91
2023/07/03 09:29:38;;;;;;;3.08;1.62;;;;;;;27.69;46.40;100063.59;1478823;88;21670;-92
2023/07/03 09:32:05;;;;;;;3.15;1.40;;;;;;;27.78;46.97;100063.33;1478645;88;21448;-80
2023/07/03 09:35:12;;;;;;;1.98;1.20;;;;;;;27.98;47.74;100061.74;1488965;87;21366;-79
2023/07/03 09:37:45;;;;;;;1.45;1.10;;;;;;;27.96;38.22;100063.91;1485270;87;21337;-79
2023/07/03 09:40:22;;;;;;;1.90;1.35;;;;;;;28.06;39.08;100061.20;1472175;88;21455;-77
2023/07/03 09:42:49;;;;;;;2.77;1.32;;;;;;;28.13;38.48;100057.65;1470767;88;21330;-78
2023/07/03 09:45:20;;;;;;;2.98;1.07;;;;;;;28.23;38.66;100063.09;1482790;88;22403;-80
2023/07/03 09:47:55;;;;;;;1.65;1.15;;;;;;;28.32;38.80;100068.25;1483422;88;21447;-80
2023/07/03 09:50:32;;;;;;;1.40;0.98;;;;;;;28.31;35.05;100070.71;1493534;87;21602;-79
2023/07/03 09:53:00;;;;;;;2.83;1.20;;;;;;;28.24;33.43;100068.80;1470003;87;21418;-79
2023/07/03 09:55:26;;;;;;;1.75;1.07;;;;;;;28.33;35.19;100066.34;1489757;87;21499;-79
2023/07/03 09:57:53;;;;;;;1.42;1.12;;;;;;;28.46;35.08;100077.25;1493175;87;21447;-80
2023/07/03 10:00:23;;;;;;;4.37;1.30;;;;;;;28.59;35.51;100070.41;1473109;88;21582;-80
2023/07/03 10:02:57;;;;;;;1.75;1.20;;;;;;;28.70;35.74;100065.22;1477028;88;22054;-77
2023/07/03 10:05:33;;;;;;;4.25;1.40;;;;;;;28.89;35.47;100064.89;1490412;87;21565;-79
2023/07/03 10:08:03;;;;;;;1.45;1.35;;;;;;;29.00;35.03;100070.56;1483228;87;21485;-79
2023/07/03 10:10:33;;;;;;;2.80;1.40;;;;;;;28.95;33.62;100065.68;1473418;87;21493;-79
2023/07/03 10:13:35;;;;;;;1.65;1.37;;;;;;;29.00;34.21;100059.67;1424317;88;21518;-78
2023/07/03 10:16:03;;;;;;;1.10;1.00;;;;;;;29.18;35.64;100062.34;1474491;88;21440;-79
2023/07/03 10:18:36;;;;;;;1.30;1.20;;;;;;;29.36;33.57;100062.23;1481671;88;21382;-79
2023/07/03 10:21:07;;;;;;;1.72;1.00;;;;;;;29.51;32.85;100050.42;1418735;89;22307;-78
2023/07/03 10:23:38;;;;;;;1.98;1.45;;;;;;;29.67;33.09;100054.71;1479236;88;21366;-79
2023/07/03 10:26:21;;;;;;;2.67;1.20;;;;;;;29.75;33.05;100051.94;1498654;87;22314;-80
2023/07/03 10:29:02;;;;;;;2.20;1.20;;;;;;;29.79;32.20;100056.27;1469691;88;21403;-80
2023/07/03 10:31:43;;;;;;;3.45;1.45;;;;;;;29.74;29.81;100052.21;1488593;87;21418;-79
2023/07/03 10:34:19;;;;;;;2.00;1.40;;;;;;;29.74;32.88;100049.48;1490123;87;22342;-78
2023/07/03 10:36:49;;;;;;;2.92;1.62;;;;;;;29.87;33.52;100051.58;1488395;87;21418;-81
2023/07/03 10:39:36;;;;;;;5.30;1.55;;;;;;;30.01;33.95;100051.70;1474252;87;21352;-78
2023/07/03 10:42:06;;;;;;;2.35;1.30;;;;;;;30.00;34.41;100057.72;1488902;87;21417;-81
2023/07/03 10:44:38;;;;;;;4.45;1.50;;;;;;;29.63;32.81;100053.63;1403565;88;21427;-81
2023/07/03 10:47:18;;;;;;;4.65;1.10;;;;;;;29.53;31.93;100050.96;1541586;88;21279;-81
2023/07/03 10:49:46;;;;;;;5.25;1.60;;;;;;;29.44;32.64;100054.83;1562469;88;21397;-79
2023/07/03 10:52:30;;;;;;;4.33;1.60;;;;;;;29.35;30.98;100055.72;1410587;87;21411;-79
2023/07/03 10:55:19;;;;;;;1.72;1.10;;;;;;;29.39;32.88;100053.49;1554348;87;21360;-80
2023/07/03 10:57:58;;;;;;;;;;;;;;;29.26;33.12;100050.56;1558619;88;21323;-81
2023/07/03 11:00:38;;;;;;;2.05;1.50;;;;;;;29.14;33.15;100055.80;1529704;89;20368;-81
2023/07/03 11:03:30;;;;;;;1.55;1.37;;;;;;;29.39;34.54;100063.03;1398794;89;21338;-80
2023/07/03 11:06:09;;;;;;;3.25;1.40;;;;;;;29.76;34.64;100057.65;1407955;87;21352;-80
2023/07/03 11:08:58;;;;;;;2.85;1.30;;;;;;;29.71;31.94;100056.88;1574536;87;21286;-80
2023/07/03 11:11:38;;;;;;;2.70;1.40;;;;;;;29.73;34.04;100057.41;1399152;89;21374;-80
2023/07/03 11:14:33;;;;;;;3.65;1.17;;;;;;;29.64;34.72;100055.28;1569437;87;21256;-81
2023/07/03 11:17:13;;;;;;;8.43;1.60;;;;;;;29.30;34.32;100061.19;1408664;89;21418;-80
2023/07/03 11:20:15;;;;;;;1.47;1.30;;;;;;;29.02;35.89;100062.09;1408177;87;21433;-80
2023/07/03 11:23:08;;;;;;;3.90;1.25;;;;;;;28.86;36.37;100057.27;1436753;87;21478;-81
2023/07/03 11:25:40;;;;;;;4.28;1.55;;;;;;;28.73;36.39;100060.58;1561280;88;22093;-81
2023/07/03 11:28:34;;;;;;;4.33;1.77;;;;;;;28.61;36.76;100058.16;1556617;88;22123;-80
2023/07/03 11:31:03;;;;;;;5.53;1.20;;;;;;;28.49;37.34;100059.02;1562846;88;21382;-80
2023/07/03 11:33:31;;;;;;;5.72;1.50;;;;;;;28.46;36.85;100048.13;1476806;87;22430;-80
2023/07/03 11:35:59;;;;;;;2.55;1.42;;;;;;;28.60;36.98;100053.81;1481529;87;21403;-80
2023/07/03 11:38:27;;;;;;;3.10;1.80;;;;;;;28.86;36.35;100051.83;1475355;87;21515;-80
2023/07/03 11:40:59;;;;;;;3.02;1.40;;;;;;;28.78;35.92;100054.56;1399443;88;21207;-81
2023/07/03 11:43:42;;;;;;;4.50;1.27;;;;;;;28.76;36.70;100055.38;1556758;88;21279;-80
2023/07/03 11:46:20;;;;;;;2.60;1.30;;;;;;;28.86;36.99;100055.07;1575530;87;21352;-80
2023/07/03 11:48:56;;;;;;;5.22;1.57;;;;;;;28.91;37.32;100053.70;1535550;87;21458;-80
2023/07/03 11:51:36;;;;;;;3.33;1.20;;;;;;;29.06;36.96;100048.23;1508107;87;21389;-80